Time;durP1;ratioP1;P1;durP2;ratioP2;P2;SDS_P1;SDS_P2;PMS_P1;PMS_P2;Temp;Humidity;BMP_temperature;BMP_pressure;BME280_temperature;BME280_humidity;BME280_pressure;Samples;Min_cycle;Max_cycle;Signal;HPM_P1;HPM_P2
2023/07/13 00:02:23;;;;;;;0.40;0.40;;;15.30;99.90;;;;;;4963212;28;20046;-75
2023/07/13 00:04:50;;;;;;;0.30;0.30;;;15.30;99.90;;;;;;4945274;28;20488;-75
2023/07/13 00:07:19;;;;;;;0.30;0.30;;;15.20;99.90;;;;;;4964405;28;20066;-75
2023/07/13 00:09:46;;;;;;;2.45;0.40;;;15.10;99.90;;;;;;4961936;28;20058;-75
2023/07/13 00:12:33;;;;;;;0.30;0.30;;;15.20;99.90;;;;;;4963442;28;20138;-75
2023/07/13 00:15:00;;;;;;;0.50;0.50;;;15.30;99.90;;;;;;4957884;28;20043;-75
2023/07/13 00:17:27;;;;;;;0.60;0.60;;;15.30;99.90;;;;;;4961368;28;20055;-75
2023/07/13 00:19:55;;;;;;;0.40;0.40;;;15.40;99.90;;;;;;4948700;28;20070;-75
2023/07/13 00:22:21;;;;;;;0.40;0.40;;;15.10;99.90;;;;;;4962001;28;20130;-76
2023/07/13 00:24:47;;;;;;;0.20;0.20;;;15.10;99.90;;;;;;4943605;28;20113;-75
2023/07/13 00:27:14;;;;;;;0.40;0.40;;;15.10;99.90;;;;;;4958354;28;20059;-75
2023/07/13 00:29:39;;;;;;;1.13;0.52;;;15.10;99.90;;;;;;4960869;28;20050;-75
2023/07/13 00:32:06;;;;;;;0.30;0.30;;;15.10;99.90;;;;;;4958953;28;20395;-75
2023/07/13 00:34:32;;;;;;;0.40;0.40;;;15.20;99.90;;;;;;4928546;28;20066;-75
2023/07/13 00:36:58;;;;;;;0.25;0.25;;;15.20;99.90;;;;;;4965296;28;21011;-75
2023/07/13 00:39:24;;;;;;;0.40;0.40;;;15.20;99.90;;;;;;4962322;28;20419;-75
2023/07/13 00:41:50;;;;;;;0.50;0.50;;;15.30;99.90;;;;;;4966490;28;20050;-75
2023/07/13 00:44:18;;;;;;;0.40;0.40;;;15.30;99.90;;;;;;4961590;28;20062;-75
2023/07/13 00:46:43;;;;;;;0.55;0.55;;;15.30;99.90;;;;;;4962596;28;20050;-75
2023/07/13 00:49:14;;;;;;;0.40;0.40;;;15.30;99.90;;;;;;4951456;28;20488;-75
2023/07/13 00:51:45;;;;;;;0.50;0.50;;;15.30;99.90;;;;;;4952016;28;20066;-75
2023/07/13 00:54:30;;;;;;;0.30;0.30;;;15.20;99.90;;;;;;4944843;28;20053;-75
2023/07/13 00:56:59;;;;;;;0.50;0.50;;;15.20;99.90;;;;;;4941690;28;20043;-75
2023/07/13 00:59:25;;;;;;;0.38;0.38;;;15.50;99.90;;;;;;4947914;28;20074;-75
2023/07/13 01:01:51;;;;;;;0.30;0.30;;;15.30;99.90;;;;;;4962925;28;23683;-75
2023/07/13 01:04:18;;;;;;;0.38;0.38;;;15.30;99.90;;;;;;4943288;28;20062;-75
2023/07/13 01:06:44;;;;;;;0.32;0.32;;;15.40;99.90;;;;;;4949322;28;20112;-74
2023/07/13 01:09:11;;;;;;;0.60;0.60;;;15.30;99.90;;;;;;4964730;28;20051;-74
2023/07/13 01:11:36;;;;;;;0.30;0.30;;;15.30;99.90;;;;;;4957080;28;20126;-75
2023/07/13 01:14:03;;;;;;;0.47;0.47;;;15.40;99.90;;;;;;4965820;28;20146;-74
2023/07/13 01:16:31;;;;;;;0.40;0.40;;;15.30;99.90;;;;;;4972893;28;20074;-75
2023/07/13 01:18:58;;;;;;;0.30;0.30;;;15.20;99.90;;;;;;4960806;28;20097;-75
2023/07/13 01:21:24;;;;;;;0.30;0.30;;;15.30;99.90;;;;;;4961039;28;20501;-75
2023/07/13 01:23:50;;;;;;;0.40;0.40;;;15.30;99.90;;;;;;4948439;28;20420;-75
2023/07/13 01:26:16;;;;;;;0.30;0.30;;;15.30;99.90;;;;;;4962244;28;20065;-75
2023/07/13 01:28:42;;;;;;;0.75;0.65;;;15.50;99.90;;;;;;4948597;28;20043;-74
2023/07/13 01:31:09;;;;;;;0.60;0.60;;;15.30;99.90;;;;;;4940308;28;20046;-75
2023/07/13 01:33:36;;;;;;;0.52;0.52;;;15.40;99.90;;;;;;4963152;28;20105;-74
2023/07/13 01:36:02;;;;;;;0.40;0.40;;;15.40;99.90;;;;;;4960020;28;20051;-74
2023/07/13 01:38:27;;;;;;;1.38;1.27;;;15.50;99.90;;;;;;4949228;28;20048;-75
2023/07/13 01:40:54;;;;;;;0.50;0.50;;;15.70;99.90;;;;;;4964618;28;20042;-75
2023/07/13 01:43:21;;;;;;;0.20;0.20;;;15.50;99.90;;;;;;4961352;28;20041;-75
2023/07/13 01:45:46;;;;;;;0.40;0.40;;;15.50;99.90;;;;;;4967188;28;20086;-75
2023/07/13 01:48:13;;;;;;;0.90;0.70;;;15.60;99.90;;;;;;4964905;28;20070;-75
2023/07/13 01:50:39;;;;;;;0.30;0.30;;;15.40;99.90;;;;;;4950037;28;20055;-75
2023/07/13 01:53:05;;;;;;;0.50;0.50;;;15.60;99.90;;;;;;4964778;28;20054;-75
2023/07/13 01:55:31;;;;;;;0.82;0.82;;;15.60;99.90;;;;;;4967365;28;20045;-75
2023/07/13 01:57:57;;;;;;;0.40;0.40;;;15.40;99.90;;;;;;4965361;28;20038;-75
2023/07/13 02:00:22;;;;;;;0.98;0.95;;;15.70;99.90;;;;;;4967645;28;20086;-75
2023/07/13 02:02:48;;;;;;;0.30;0.30;;;15.50;99.90;;;;;;4942561;28;20054;-75
2023/07/13 02:05:15;;;;;;;0.52;0.52;;;15.60;99.90;;;;;;4965659;28;20085;-74
2023/07/13 02:07:40;;;;;;;0.75;0.70;;;15.60;99.90;;;;;;4941079;28;20035;-75
2023/07/13 02:10:08;;;;;;;0.52;0.52;;;15.50;99.90;;;;;;4947326;28;20543;-75
2023/07/13 02:12:35;;;;;;;0.50;0.50;;;15.50;99.90;;;;;;4964653;28;20055;-74
2023/07/13 02:15:01;;;;;;;0.50;0.50;;;15.60;99.90;;;;;;4940929;28;20051;-75
2023/07/13 02:17:26;;;;;;;0.40;0.40;;;15.60;99.90;;;;;;4941744;28;20049;-75
2023/07/13 02:19:52;;;;;;;0.75;0.57;;;15.80;99.90;;;;;;4951094;28;20697;-75
2023/07/13 02:22:18;;;;;;;0.50;0.50;;;15.60;99.90;;;;;;4953150;28;20058;-74
2023/07/13 02:24:44;;;;;;;0.30;0.30;;;15.50;99.90;;;;;;4953024;28;20157;-75
2023/07/13 02:27:10;;;;;;;0.30;0.30;;;15.60;99.90;;;;;;4961807;28;20435;-75
2023/07/13 02:29:35;;;;;;;0.47;0.47;;;15.60;99.90;;;;;;4966076;28;20071;-75
2023/07/13 02:32:01;;;;;;;0.30;0.30;;;15.50;99.90;;;;;;4943171;28;20082;-75
2023/07/13 02:34:26;;;;;;;0.45;0.45;;;15.70;99.90;;;;;;4949328;28;20089;-74
2023/07/13 02:36:52;;;;;;;0.55;0.55;;;15.60;99.90;;;;;;4971842;28;20053;-75
2023/07/13 02:39:18;;;;;;;0.88;0.88;;;15.80;99.90;;;;;;4966851;28;20050;-75
2023/07/13 02:41:44;;;;;;;4.03;0.85;;;15.60;99.90;;;;;;4950283;28;20458;-74
2023/07/13 02:44:09;;;;;;;0.50;0.50;;;15.60;99.90;;;;;;4947279;28;20051;-74
2023/07/13 02:46:37;;;;;;;0.30;0.30;;;15.70;99.90;;;;;;4970835;28;20046;-76
2023/07/13 02:49:03;;;;;;;0.80;0.80;;;15.70;99.90;;;;;;4951848;28;20452;-75
2023/07/13 02:51:29;;;;;;;0.40;0.40;;;15.80;99.90;;;;;;4945398;28;20054;-74
2023/07/13 02:53:55;;;;;;;0.50;0.50;;;15.70;99.90;;;;;;4958696;28;20065;-74
2023/07/13 02:56:24;;;;;;;0.88;0.88;;;15.60;99.90;;;;;;4953969;28;20498;-74
2023/07/13 02:58:50;;;;;;;0.65;0.65;;;15.70;99.90;;;;;;4963837;28;20066;-74
2023/07/13 03:01:18;;;;;;;0.30;0.30;;;15.70;99.90;;;;;;4966010;28;20047;-74
2023/07/13 03:03:45;;;;;;;0.65;0.47;;;15.60;99.90;;;;;;4963237;28;20054;-74
2023/07/13 03:06:11;;;;;;;0.65;0.57;;;15.70;99.90;;;;;;4943390;28;20043;-74
2023/07/13 03:08:37;;;;;;;0.40;0.40;;;15.60;99.90;;;;;;4967276;28;20043;-74
2023/07/13 03:11:06;;;;;;;0.50;0.50;;;15.40;99.90;;;;;;4949051;28;20098;-74
2023/07/13 03:13:31;;;;;;;0.30;0.30;;;15.40;99.90;;;;;;4952226;28;20057;-74
2023/07/13 03:15:57;;;;;;;0.50;0.50;;;15.60;99.90;;;;;;4965093;28;20047;-74
2023/07/13 03:18:27;;;;;;;0.70;0.70;;;15.70;99.90;;;;;;4961549;28;20403;-76
2023/07/13 03:20:53;;;;;;;0.63;0.50;;;15.60;99.90;;;;;;4945929;28;20073;-77
2023/07/13 03:23:20;;;;;;;0.40;0.40;;;15.60;99.90;;;;;;4941767;28;20054;-77
2023/07/13 03:25:46;;;;;;;0.40;0.40;;;15.20;99.90;;;;;;4942502;28;20059;-76
2023/07/13 03:28:13;;;;;;;0.40;0.40;;;15.40;99.90;;;;;;4953651;28;20076;-76
2023/07/13 03:30:38;;;;;;;0.30;0.30;;;15.30;99.90;;;;;;4947671;28;20503;-76
2023/07/13 03:33:04;;;;;;;0.35;0.35;;;15.40;99.90;;;;;;4963737;28;20074;-76
2023/07/13 03:35:30;;;;;;;0.30;0.30;;;15.40;99.90;;;;;;4949051;28;20101;-76
2023/07/13 03:37:56;;;;;;;0.40;0.40;;;15.40;99.90;;;;;;4944843;28;20094;-76
2023/07/13 03:40:23;;;;;;;0.40;0.40;;;15.30;99.90;;;;;;4950851;28;20050;-76
2023/07/13 03:42:49;;;;;;;0.30;0.30;;;15.60;99.90;;;;;;4968479;28;20140;-76
2023/07/13 03:45:14;;;;;;;0.70;0.57;;;15.30;99.90;;;;;;4955102;28;20492;-76
2023/07/13 03:47:40;;;;;;;0.40;0.40;;;15.50;99.90;;;;;;4963474;28;20053;-76
2023/07/13 03:50:06;;;;;;;0.50;0.50;;;15.60;99.90;;;;;;4968187;28;20050;-76
2023/07/13 03:52:32;;;;;;;0.98;0.90;;;15.20;99.90;;;;;;4966073;28;20057;-76
2023/07/13 03:54:58;;;;;;;0.50;0.50;;;15.30;99.90;;;;;;4945093;28;20043;-76
2023/07/13 03:57:23;;;;;;;0.70;0.70;;;15.20;99.90;;;;;;4944625;28;20464;-76
2023/07/13 03:59:49;;;;;;;0.60;0.60;;;15.30;99.90;;;;;;4949360;28;20102;-76
2023/07/13 04:02:14;;;;;;;0.22;0.22;;;15.50;99.90;;;;;;4965395;28;20069;-76
2023/07/13 04:04:40;;;;;;;0.43;0.43;;;15.40;99.90;;;;;;4949031;28;20049;-76
2023/07/13 04:07:08;;;;;;;0.30;0.30;;;15.60;99.90;;;;;;4944221;28;20058;-76
2023/07/13 04:09:34;;;;;;;0.40;0.40;;;15.60;99.90;;;;;;4952156;28;20550;-77
2023/07/13 04:11:59;;;;;;;0.57;0.55;;;15.40;99.90;;;;;;4961669;28;20047;-75
2023/07/13 04:14:25;;;;;;;0.30;0.30;;;15.40;99.90;;;;;;4963953;28;20031;-72
2023/07/13 04:16:51;;;;;;;0.60;0.60;;;15.60;99.90;;;;;;4957899;28;20035;-72
2023/07/13 04:19:17;;;;;;;0.30;0.30;;;15.50;99.90;;;;;;4964916;28;20043;-73
2023/07/13 04:21:42;;;;;;;1.00;1.00;;;15.60;99.90;;;;;;4966149;28;20045;-73
2023/07/13 04:24:08;;;;;;;0.40;0.40;;;15.50;99.90;;;;;;4958870;28;20054;-73
2023/07/13 04:26:36;;;;;;;0.63;0.50;;;15.60;99.90;;;;;;4964162;28;20451;-73
2023/07/13 04:29:03;;;;;;;0.30;0.30;;;15.60;99.90;;;;;;4966914;28;20045;-73
2023/07/13 04:31:29;;;;;;;0.65;0.65;;;15.60;99.90;;;;;;4960556;28;20051;-72
2023/07/13 04:33:55;;;;;;;0.40;0.40;;;15.70;99.90;;;;;;4969348;28;20078;-72
2023/07/13 04:36:21;;;;;;;0.35;0.35;;;15.60;99.90;;;;;;4968473;28;20039;-73
2023/07/13 04:38:46;;;;;;;0.65;0.65;;;15.60;99.90;;;;;;4966941;28;20131;-72
2023/07/13 04:41:14;;;;;;;0.40;0.40;;;15.40;99.90;;;;;;4962102;28;20429;-73
2023/07/13 04:43:40;;;;;;;0.40;0.40;;;15.40;99.90;;;;;;4950240;28;20054;-73
2023/07/13 04:46:11;;;;;;;0.40;0.40;;;15.40;99.90;;;;;;4948550;28;20117;-73
2023/07/13 04:48:37;;;;;;;0.60;0.60;;;15.30;99.90;;;;;;4962259;28;20510;-73
2023/07/13 04:51:04;;;;;;;0.47;0.47;;;15.30;99.90;;;;;;4962223;28;20522;-73
2023/07/13 04:53:30;;;;;;;0.40;0.40;;;15.30;99.90;;;;;;4965395;28;20043;-72
2023/07/13 04:55:56;;;;;;;0.30;0.30;;;15.30;99.90;;;;;;4964361;28;20190;-73
2023/07/13 04:58:22;;;;;;;0.40;0.40;;;15.30;99.90;;;;;;4963293;28;20133;-73
2023/07/13 05:00:49;;;;;;;0.50;0.50;;;15.30;99.90;;;;;;4945986;28;20061;-73
2023/07/13 05:03:14;;;;;;;1.10;0.70;;;15.30;99.90;;;;;;4963743;28;20039;-73
2023/07/13 05:05:40;;;;;;;0.60;0.60;;;15.20;99.90;;;;;;4964567;28;20050;-73
2023/07/13 05:08:07;;;;;;;0.65;0.65;;;15.20;99.90;;;;;;4946457;28;20073;-74
2023/07/13 05:10:33;;;;;;;0.60;0.60;;;15.30;99.90;;;;;;4958122;28;20077;-73
2023/07/13 05:12:58;;;;;;;0.40;0.40;;;15.30;99.90;;;;;;4962308;28;20074;-74
2023/07/13 05:15:25;;;;;;;1.05;0.60;;;15.30;99.90;;;;;;4963907;28;20481;-73
2023/07/13 05:17:51;;;;;;;1.23;0.73;;;15.30;99.90;;;;;;4963232;28;20385;-73
2023/07/13 05:20:18;;;;;;;0.38;0.38;;;15.60;99.90;;;;;;4941045;28;20338;-73
2023/07/13 05:22:44;;;;;;;0.87;0.87;;;15.50;99.90;;;;;;4961825;28;20154;-74
2023/07/13 05:25:09;;;;;;;1.23;0.88;;;15.40;99.90;;;;;;4947114;28;20779;-74
2023/07/13 05:27:36;;;;;;;0.80;0.80;;;15.50;99.90;;;;;;4969247;28;20558;-73
2023/07/13 05:30:03;;;;;;;0.50;0.50;;;15.50;99.90;;;;;;4962725;28;20078;-73
2023/07/13 05:32:29;;;;;;;0.33;0.33;;;15.40;99.90;;;;;;4958232;28;20570;-73
2023/07/13 05:34:55;;;;;;;0.40;0.40;;;15.70;99.90;;;;;;4957375;28;20282;-74
2023/07/13 05:37:20;;;;;;;0.90;0.90;;;15.50;99.90;;;;;;4961928;28;20507;-74
2023/07/13 05:39:46;;;;;;;0.73;0.73;;;15.60;99.90;;;;;;4947362;28;20422;-73
2023/07/13 05:42:12;;;;;;;0.70;0.70;;;15.80;99.90;;;;;;4941786;28;20483;-73
2023/07/13 05:44:37;;;;;;;0.75;0.75;;;15.60;99.90;;;;;;4940478;28;20124;-73
2023/07/13 05:47:03;;;;;;;0.73;0.70;;;15.70;99.90;;;;;;4947577;28;20043;-74
2023/07/13 05:49:30;;;;;;;1.17;1.17;;;15.70;99.90;;;;;;4940941;28;20097;-74
2023/07/13 05:51:56;;;;;;;0.60;0.60;;;16.00;99.90;;;;;;4956935;28;20563;-74
2023/07/13 05:54:21;;;;;;;0.60;0.60;;;16.00;99.90;;;;;;4943906;28;20138;-74
2023/07/13 05:56:47;;;;;;;0.47;0.45;;;15.80;99.90;;;;;;4967683;28;20039;-74
2023/07/13 05:59:13;;;;;;;0.40;0.40;;;16.10;99.90;;;;;;4947159;28;20170;-75
2023/07/13 06:01:38;;;;;;;0.85;0.85;;;16.30;99.90;;;;;;4944749;28;20051;-74
2023/07/13 06:04:04;;;;;;;0.52;0.52;;;16.00;99.90;;;;;;4965927;28;20490;-74
2023/07/13 06:06:30;;;;;;;0.63;0.63;;;16.20;99.90;;;;;;4945742;28;20054;-75
2023/07/13 06:08:56;;;;;;;0.65;0.65;;;16.10;99.90;;;;;;4942942;28;20056;-75
2023/07/13 06:11:23;;;;;;;0.70;0.70;;;16.20;99.90;;;;;;4949671;28;20051;-75
2023/07/13 06:13:50;;;;;;;0.30;0.30;;;16.50;99.90;;;;;;4941872;28;20069;-75
2023/07/13 06:16:16;;;;;;;0.38;0.38;;;16.50;99.90;;;;;;4933485;28;20110;-75
2023/07/13 06:18:42;;;;;;;0.40;0.40;;;16.70;99.90;;;;;;4946439;28;20365;-75
2023/07/13 06:21:10;;;;;;;0.60;0.60;;;16.50;99.90;;;;;;4967518;28;20115;-75
2023/07/13 06:23:38;;;;;;;3.22;1.27;;;16.80;99.90;;;;;;4942942;28;20146;-75
2023/07/13 06:26:05;;;;;;;0.50;0.50;;;16.70;99.90;;;;;;4942127;28;20055;-75
2023/07/13 06:28:31;;;;;;;1.33;1.23;;;16.60;99.90;;;;;;4941714;28;20059;-75
2023/07/13 06:30:58;;;;;;;0.50;0.50;;;17.00;99.90;;;;;;4939993;28;20051;-75
2023/07/13 06:33:23;;;;;;;0.57;0.57;;;17.20;99.90;;;;;;4938851;28;20106;-75
2023/07/13 06:35:49;;;;;;;1.10;0.77;;;17.10;99.90;;;;;;4936927;28;20567;-75
2023/07/13 06:38:15;;;;;;;0.30;0.30;;;17.00;99.90;;;;;;4941089;28;20047;-75
2023/07/13 06:40:41;;;;;;;0.60;0.60;;;17.20;99.90;;;;;;4936397;28;20138;-75
2023/07/13 06:43:06;;;;;;;0.60;0.60;;;17.20;99.90;;;;;;4940291;28;20088;-75
2023/07/13 06:45:40;;;;;;;0.60;0.60;;;17.40;99.90;;;;;;4940601;28;20039;-75
2023/07/13 06:48:06;;;;;;;0.63;0.63;;;17.70;99.90;;;;;;4934044;28;20052;-76
2023/07/13 06:50:33;;;;;;;0.55;0.55;;;17.70;99.90;;;;;;4939035;28;20040;-76
2023/07/13 06:52:59;;;;;;;0.75;0.75;;;18.20;99.90;;;;;;4934740;28;20476;-75
2023/07/13 06:55:25;;;;;;;0.30;0.30;;;18.20;99.90;;;;;;4945369;28;20503;-76
2023/07/13 06:57:51;;;;;;;0.50;0.50;;;18.70;99.90;;;;;;4937287;28;20098;-75
2023/07/13 07:00:17;;;;;;;0.30;0.30;;;18.70;99.90;;;;;;4935971;28;20441;-75
2023/07/13 07:02:42;;;;;;;0.40;0.40;;;19.20;99.90;;;;;;4942046;28;20040;-75
2023/07/13 07:05:08;;;;;;;0.50;0.50;;;19.20;99.90;;;;;;4941198;28;20106;-75
2023/07/13 07:07:34;;;;;;;0.40;0.40;;;19.40;99.90;;;;;;4943565;28;20043;-75
2023/07/13 07:09:59;;;;;;;0.30;0.30;;;19.60;99.90;;;;;;4937282;28;20035;-75
2023/07/13 07:12:25;;;;;;;0.77;0.77;;;19.80;99.90;;;;;;4924054;28;20146;-75
2023/07/13 07:14:51;;;;;;;0.63;0.63;;;19.90;99.90;;;;;;4942050;28;20114;-75
2023/07/13 07:17:16;;;;;;;0.40;0.40;;;20.00;99.90;;;;;;4936664;28;20052;-75
2023/07/13 07:19:42;;;;;;;0.43;0.43;;;20.10;99.90;;;;;;4942282;28;20059;-75
2023/07/13 07:22:08;;;;;;;0.30;0.30;;;20.10;99.90;;;;;;4944108;28;20051;-74
2023/07/13 07:24:33;;;;;;;0.60;0.60;;;20.20;99.90;;;;;;4932758;29;20051;-75
2023/07/13 07:26:59;;;;;;;0.55;0.55;;;20.20;99.90;;;;;;4955936;28;20393;-75
2023/07/13 07:29:26;;;;;;;0.60;0.60;;;20.40;99.90;;;;;;4937776;28;20040;-75
2023/07/13 07:31:52;;;;;;;0.40;0.40;;;20.20;99.90;;;;;;4946806;28;20047;-75
2023/07/13 07:34:17;;;;;;;0.65;0.65;;;20.40;99.90;;;;;;4941386;28;20079;-75
2023/07/13 07:36:43;;;;;;;0.73;0.73;;;20.00;99.90;;;;;;4948996;28;20515;-75
2023/07/13 07:39:09;;;;;;;0.65;0.50;;;19.90;99.90;;;;;;4945220;28;20055;-74
2023/07/13 07:41:34;;;;;;;4.07;0.73;;;20.00;99.90;;;;;;4945628;28;20126;-74
2023/07/13 07:44:00;;;;;;;1.13;1.13;;;19.90;99.90;;;;;;4943479;28;20050;-75
2023/07/13 07:46:26;;;;;;;1.95;0.82;;;19.80;99.90;;;;;;4951650;28;20042;-75
2023/07/13 07:48:51;;;;;;;0.88;0.88;;;19.70;99.90;;;;;;4944336;28;20559;-75
2023/07/13 07:51:17;;;;;;;1.08;1.02;;;19.60;99.90;;;;;;4944338;28;20054;-74
2023/07/13 07:53:42;;;;;;;0.75;0.75;;;19.80;99.90;;;;;;4946284;28;20043;-74
2023/07/13 07:56:09;;;;;;;1.17;1.08;;;19.60;99.90;;;;;;4951210;28;20276;-74
2023/07/13 07:58:35;;;;;;;0.50;0.50;;;19.90;99.90;;;;;;4947222;28;20051;-74
2023/07/13 08:01:07;;;;;;;0.55;0.55;;;19.60;99.90;;;;;;4951411;28;20659;-74
2023/07/13 08:03:33;;;;;;;0.75;0.73;;;19.60;99.90;;;;;;4961095;28;20283;-75
2023/07/13 08:05:58;;;;;;;0.60;0.60;;;19.70;99.90;;;;;;4947933;28;20050;-75
2023/07/13 08:08:25;;;;;;;1.30;0.95;;;19.40;99.90;;;;;;4942302;28;20497;-74
2023/07/13 08:10:50;;;;;;;0.52;0.52;;;19.40;99.90;;;;;;4950328;28;20412;-75
2023/07/13 08:13:16;;;;;;;0.40;0.40;;;19.50;99.90;;;;;;4942890;28;20330;-74
2023/07/13 08:15:42;;;;;;;0.43;0.43;;;19.50;99.90;;;;;;4940292;28;20050;-75
2023/07/13 08:18:08;;;;;;;0.40;0.40;;;19.80;99.90;;;;;;4948009;28;20036;-75
2023/07/13 08:20:38;;;;;;;0.70;0.70;;;19.60;99.90;;;;;;4946144;28;20055;-74
2023/07/13 08:23:04;;;;;;;0.40;0.40;;;19.70;99.90;;;;;;4937835;28;20057;-75
2023/07/13 08:25:29;;;;;;;0.40;0.40;;;19.80;99.90;;;;;;4955575;28;20063;-75
2023/07/13 08:27:55;;;;;;;0.40;0.40;;;19.90;99.90;;;;;;4941067;28;20066;-75
2023/07/13 08:30:20;;;;;;;0.80;0.80;;;19.70;99.90;;;;;;4947126;28;20384;-74
2023/07/13 08:32:46;;;;;;;1.15;1.15;;;19.70;99.90;;;;;;4948971;28;20047;-75
2023/07/13 08:35:13;;;;;;;0.65;0.65;;;19.80;99.90;;;;;;4947358;28;20110;-76
2023/07/13 08:37:39;;;;;;;0.52;0.52;;;19.80;99.90;;;;;;4942136;28;20046;-75
2023/07/13 08:40:07;;;;;;;0.38;0.38;;;19.80;99.90;;;;;;4961027;28;20400;-75
2023/07/13 08:42:53;;;;;;;0.85;0.82;;;19.90;99.90;;;;;;4965665;28;20043;-75
2023/07/13 08:45:46;;;;;;;1.02;1.00;;;20.10;99.90;;;;;;4963583;28;20050;-76
2023/07/13 08:48:26;;;;;;;0.88;0.88;;;20.30;99.90;;;;;;4946461;28;20501;-76
2023/07/13 08:50:58;;;;;;;0.60;0.60;;;20.10;99.90;;;;;;4946059;28;20436;-75
2023/07/13 08:53:37;;;;;;;0.80;0.80;;;20.20;99.90;;;;;;4948647;28;20058;-75
2023/07/13 08:56:09;;;;;;;0.65;0.65;;;20.00;99.90;;;;;;4962835;28;20051;-75
2023/07/13 08:58:36;;;;;;;0.60;0.52;;;19.90;99.90;;;;;;4943615;28;20500;-75
2023/07/13 09:01:32;;;;;;;0.70;0.70;;;19.80;99.90;;;;;;4950260;28;20053;-73
2023/07/13 09:04:22;;;;;;;1.55;1.10;;;19.70;99.90;;;;;;4963567;28;20057;-72
2023/07/13 09:06:53;;;;;;;0.95;0.95;;;19.80;99.90;;;;;;4955009;28;20614;-72
2023/07/13 09:09:43;;;;;;;0.50;0.50;;;19.40;99.90;;;;;;4967808;28;20519;-73
2023/07/13 09:12:17;;;;;;;0.50;0.50;;;19.50;99.90;;;;;;4961754;28;20566;-73
2023/07/13 09:14:48;;;;;;;0.55;0.55;;;19.10;99.90;;;;;;4957427;28;20062;-72
2023/07/13 09:17:27;;;;;;;0.50;0.50;;;19.20;99.90;;;;;;4967912;28;20050;-72
2023/07/13 09:20:23;;;;;;;0.40;0.40;;;19.10;99.90;;;;;;4965444;28;20061;-73
2023/07/13 09:22:50;;;;;;;0.65;0.65;;;19.20;99.90;;;;;;4963589;28;20375;-72
2023/07/13 09:25:37;;;;;;;0.50;0.50;;;18.80;99.90;;;;;;4927054;28;20062;-72
2023/07/13 09:28:12;;;;;;;0.40;0.40;;;18.90;99.90;;;;;;4958580;28;20054;-73
2023/07/13 09:31:04;;;;;;;0.90;0.90;;;18.70;99.90;;;;;;4927909;28;20051;-73
2023/07/13 09:33:31;;;;;;;1.23;0.85;;;18.60;99.90;;;;;;4971367;28;20053;-73
2023/07/13 09:35:58;;;;;;;0.68;0.68;;;19.00;99.90;;;;;;4961781;28;20049;-72
2023/07/13 09:38:26;;;;;;;0.80;0.80;;;18.70;99.90;;;;;;4961194;28;20583;-71
2023/07/13 09:41:17;;;;;;;0.88;0.88;;;18.60;99.90;;;;;;4948735;28;20778;-72
2023/07/13 09:44:09;;;;;;;0.50;0.50;;;18.60;99.90;;;;;;4957814;28;20465;-71
2023/07/13 09:46:35;;;;;;;0.40;0.40;;;18.60;99.90;;;;;;4935588;28;20121;-71
2023/07/13 09:49:00;;;;;;;0.65;0.50;;;18.40;99.90;;;;;;4959012;28;20196;-72
2023/07/13 09:51:26;;;;;;;0.70;0.70;;;18.10;99.90;;;;;;4959753;28;20050;-71
2023/07/13 09:53:51;;;;;;;0.50;0.50;;;18.30;99.90;;;;;;4965155;28;20043;-70
2023/07/13 09:56:23;;;;;;;0.47;0.47;;;18.20;99.90;;;;;;4964206;28;20444;-71
2023/07/13 09:58:49;;;;;;;0.40;0.40;;;17.80;99.90;;;;;;4948294;28;20078;-71
2023/07/13 10:01:15;;;;;;;0.43;0.43;;;17.70;99.90;;;;;;4970379;28;20042;-72
2023/07/13 10:03:53;;;;;;;0.40;0.40;;;17.80;99.90;;;;;;4962690;28;20332;-72
2023/07/13 10:06:26;;;;;;;1.52;1.42;;;17.80;99.90;;;;;;4964744;28;20054;-72
2023/07/13 10:08:52;;;;;;;0.52;0.52;;;18.10;99.90;;;;;;4964830;28;20562;-72
2023/07/13 10:11:26;;;;;;;0.63;0.63;;;18.20;99.90;;;;;;4962273;28;20047;-73
2023/07/13 10:13:55;;;;;;;0.93;0.93;;;18.20;99.90;;;;;;4939902;28;20057;-74
2023/07/13 10:16:22;;;;;;;0.63;0.63;;;18.60;99.90;;;;;;4963281;28;20089;-74
2023/07/13 10:19:06;;;;;;;1.95;1.02;;;18.70;99.90;;;;;;4964811;28;20117;-74
2023/07/13 10:21:37;;;;;;;0.60;0.60;;;19.00;99.90;;;;;;4944469;28;20122;-74
2023/07/13 10:24:25;;;;;;;0.47;0.47;;;19.10;99.90;;;;;;4952503;28;20094;-75
2023/07/13 10:27:04;;;;;;;0.82;0.82;;;19.40;99.90;;;;;;4955223;28;20475;-74
2023/07/13 10:29:34;;;;;;;3.28;1.80;;;20.10;99.90;;;;;;4959349;28;20087;-74
2023/07/13 10:32:00;;;;;;;0.80;0.80;;;20.40;99.90;;;;;;4954487;28;20294;-74
2023/07/13 10:34:26;;;;;;;0.30;0.30;;;20.50;99.90;;;;;;4957517;28;20118;-74
2023/07/13 10:36:53;;;;;;;0.40;0.40;;;20.50;99.90;;;;;;4960481;28;20578;-74
2023/07/13 10:39:22;;;;;;;0.90;0.88;;;20.60;99.90;;;;;;4960760;28;20090;-74
2023/07/13 10:41:59;;;;;;;0.95;0.95;;;20.90;99.90;;;;;;4957618;28;20049;-74
2023/07/13 10:44:28;;;;;;;0.60;0.60;;;21.00;99.90;;;;;;4960107;28;20066;-74
2023/07/13 10:47:04;;;;;;;0.38;0.38;;;21.30;99.90;;;;;;4965754;28;20049;-74
2023/07/13 10:49:33;;;;;;;0.77;0.77;;;21.70;99.90;;;;;;4958963;28;20085;-74
2023/07/13 10:51:59;;;;;;;0.38;0.38;;;22.00;99.90;;;;;;4963953;28;20045;-74
2023/07/13 10:54:31;;;;;;;0.30;0.30;;;22.40;99.90;;;;;;4940604;28;20058;-74
2023/07/13 10:57:19;;;;;;;0.50;0.50;;;22.80;99.90;;;;;;4950420;28;20488;-74
2023/07/13 11:00:15;;;;;;;0.50;0.50;;;22.70;99.90;;;;;;4948118;28;20445;-75
2023/07/13 11:02:42;;;;;;;0.50;0.45;;;22.80;99.90;;;;;;4957291;28;20051;-75
2023/07/13 11:05:34;;;;;;;1.17;1.13;;;22.90;99.90;;;;;;4965911;28;20059;-75
2023/07/13 11:08:13;;;;;;;0.55;0.50;;;23.10;99.90;;;;;;4962748;28;20410;-75
2023/07/13 11:10:52;;;;;;;0.55;0.55;;;23.30;99.90;;;;;;4952744;28;20039;-75
2023/07/13 11:13:54;;;;;;;0.75;0.75;;;23.70;99.90;;;;;;4947308;28;20452;-76
2023/07/13 11:16:20;;;;;;;0.20;0.20;;;24.00;99.90;;;;;;4959864;28;20046;-75
2023/07/13 11:18:49;;;;;;;0.30;0.30;;;23.80;99.90;;;;;;4962798;28;20570;-73
2023/07/13 11:21:26;;;;;;;0.45;0.45;;;23.50;99.90;;;;;;4967525;28;20093;-71
2023/07/13 11:23:54;;;;;;;0.20;0.20;;;23.60;99.90;;;;;;4961806;28;20047;-71
2023/07/13 11:26:50;;;;;;;0.40;0.40;;;23.00;99.90;;;;;;4973446;28;20117;-73
2023/07/13 11:29:24;;;;;;;0.20;0.20;;;23.20;99.90;;;;;;4963296;28;20047;-72
2023/07/13 11:31:55;;;;;;;0.38;0.38;;;22.80;99.90;;;;;;4943303;28;20106;-72
2023/07/13 11:34:30;;;;;;;0.50;0.50;;;23.10;99.90;;;;;;4964744;28;20407;-71
2023/07/13 11:36:56;;;;;;;0.55;0.40;;;22.50;99.90;;;;;;4957275;28;20051;-72
2023/07/13 11:39:34;;;;;;;0.35;0.35;;;22.20;99.90;;;;;;4963994;28;20051;-73
2023/07/13 11:42:03;;;;;;;0.50;0.50;;;21.40;99.90;;;;;;4963790;28;20542;-72
2023/07/13 11:44:31;;;;;;;0.75;0.68;;;21.20;99.90;;;;;;4928086;28;20103;-73
2023/07/13 11:47:09;;;;;;;0.50;0.50;;;20.60;99.90;;;;;;4948122;28;20038;-73
2023/07/13 11:49:48;;;;;;;0.38;0.38;;;20.60;99.90;;;;;;4961315;28;20050;-73
2023/07/13 11:52:18;;;;;;;0.52;0.52;;;20.20;99.90;;;;;;4956072;28;20499;-74
2023/07/13 11:54:50;;;;;;;0.80;0.80;;;20.20;99.90;;;;;;4947273;28;20045;-74
2023/07/13 11:57:28;;;;;;;0.30;0.30;;;19.50;99.90;;;;;;4945720;28;20054;-74
2023/07/13 11:59:55;;;;;;;0.65;0.65;;;19.50;99.90;;;;;;4948846;28;20046;-74
2023/07/13 12:02:33;;;;;;;0.50;0.50;;;19.70;99.90;;;;;;4963712;28;20042;-74
2023/07/13 12:05:02;;;;;;;0.68;0.63;;;19.70;99.90;;;;;;4947327;28;20078;-74
2023/07/13 12:07:30;;;;;;;0.50;0.50;;;19.40;99.90;;;;;;4928498;28;20447;-74
2023/07/13 12:10:18;;;;;;;0.55;0.55;;;19.70;99.90;;;;;;4942830;28;20495;-74
2023/07/13 12:12:54;;;;;;;;;;;19.90;99.90;;;;;;4958988;28;20039;-74
2023/07/13 12:15:22;;;;;;;0.50;0.50;;;19.80;99.90;;;;;;4963961;28;19961;-74
2023/07/13 12:17:48;;;;;;;0.80;0.80;;;20.40;99.90;;;;;;4952956;28;20109;-73
2023/07/13 12:20:25;;;;;;;0.50;0.50;;;20.40;99.90;;;;;;4966995;28;20047;-74
2023/07/13 12:22:52;;;;;;;0.70;0.70;;;20.80;99.90;;;;;;4955778;28;20385;-73
2023/07/13 12:25:19;;;;;;;0.65;0.65;;;20.60;99.90;;;;;;4966942;28;20055;-73
2023/07/13 12:27:49;;;;;;;7.53;1.50;;;20.90;99.90;;;;;;4970487;28;20061;-73
2023/07/13 12:30:35;;;;;;;0.50;0.50;;;21.20;99.90;;;;;;4950358;28;20066;-73
2023/07/13 12:33:08;;;;;;;0.77;0.77;;;21.20;99.90;;;;;;4962157;28;20050;-73
2023/07/13 12:35:47;;;;;;;0.63;0.60;;;21.60;99.90;;;;;;4965215;28;20447;-73
2023/07/13 12:38:13;;;;;;;0.40;0.40;;;21.40;99.90;;;;;;4945154;28;20046;-73
2023/07/13 12:40:40;;;;;;;0.50;0.50;;;21.10;99.90;;;;;;4960694;28;20129;-73
2023/07/13 12:43:14;;;;;;;0.40;0.40;;;21.10;99.90;;;;;;4944765;28;20050;-73
2023/07/13 12:46:04;;;;;;;0.77;0.77;;;21.30;99.90;;;;;;4969439;28;20587;-73
2023/07/13 12:48:38;;;;;;;0.30;0.30;;;21.60;99.90;;;;;;4963610;28;20122;-73
2023/07/13 12:51:08;;;;;;;2.15;1.20;;;21.60;99.90;;;;;;4959097;28;20389;-73
2023/07/13 12:53:40;;;;;;;0.85;0.77;;;21.90;99.90;;;;;;4942870;28;20107;-73
2023/07/13 12:56:11;;;;;;;0.50;0.50;;;22.50;99.90;;;;;;4956442;28;20050;-73
2023/07/13 12:58:40;;;;;;;0.50;0.50;;;22.30;99.90;;;;;;4962758;28;20047;-73